Terminal Aerodrome Forecast
Issued by NWS Portland, ME

Home | Current Version | Previous Version | Text Only | Print | Product List | Glossary On
Versions: 1 2 3 4 5 6 7 8 9 10 11 12 13 14 15 16 17
210
FTUS41 KGYX 302320
TAFPWM
TAF
KPWM 302320Z 0100/0124 18003KT P6SM SCT100 SCT200
     FM011500 15007KT P6SM -RA SCT025 BKN050=

USA.gov is the U.S. government's official web portal to all federal, state and local government web resources and services.